sensor_id;sensor_type;location;lat;lon;timestamp;P1;durP1;ratioP1;P2;durP2;ratioP2
19897;SDS011;10111;50.814;4.572;2023-02-03T00:00:25;6.30;;;2.03;;
19897;SDS011;10111;50.814;4.572;2023-02-03T00:02:52;7.07;;;2.17;;
19897;SDS011;10111;50.814;4.572;2023-02-03T00:05:18;3.93;;;2.03;;
19897;SDS011;10111;50.814;4.572;2023-02-03T00:07:45;5.00;;;2.57;;
19897;SDS011;10111;50.814;4.572;2023-02-03T00:10:11;4.57;;;2.57;;
19897;SDS011;10111;50.814;4.572;2023-02-03T00:12:37;6.37;;;2.17;;
19897;SDS011;10111;50.814;4.572;2023-02-03T00:15:03;6.97;;;2.07;;
19897;SDS011;10111;50.814;4.572;2023-02-03T00:17:28;4.53;;;2.20;;
19897;SDS011;10111;50.814;4.572;2023-02-03T00:19:54;5.47;;;2.30;;
19897;SDS011;10111;50.814;4.572;2023-02-03T00:22:20;3.90;;;2.67;;
19897;SDS011;10111;50.814;4.572;2023-02-03T00:24:45;5.53;;;2.57;;
19897;SDS011;10111;50.814;4.572;2023-02-03T00:27:11;7.47;;;2.47;;
19897;SDS011;10111;50.814;4.572;2023-02-03T00:29:38;4.57;;;2.30;;
19897;SDS011;10111;50.814;4.572;2023-02-03T00:32:03;7.10;;;2.87;;
19897;SDS011;10111;50.814;4.572;2023-02-03T00:34:29;6.67;;;2.33;;
19897;SDS011;10111;50.814;4.572;2023-02-03T00:36:55;7.07;;;2.63;;
19897;SDS011;10111;50.814;4.572;2023-02-03T00:39:21;2.60;;;2.17;;
19897;SDS011;10111;50.814;4.572;2023-02-03T00:41:47;4.53;;;2.27;;
19897;SDS011;10111;50.814;4.572;2023-02-03T00:44:13;3.10;;;2.50;;
19897;SDS011;10111;50.814;4.572;2023-02-03T00:46:39;3.90;;;2.03;;
19897;SDS011;10111;50.814;4.572;2023-02-03T00:49:04;7.80;;;2.90;;
19897;SDS011;10111;50.814;4.572;2023-02-03T00:51:32;2.30;;;1.90;;
19897;SDS011;10111;50.814;4.572;2023-02-03T00:53:58;5.03;;;2.10;;
19897;SDS011;10111;50.814;4.572;2023-02-03T00:56:24;5.20;;;2.17;;
19897;SDS011;10111;50.814;4.572;2023-02-03T00:58:50;9.50;;;2.43;;
19897;SDS011;10111;50.814;4.572;2023-02-03T01:01:15;6.97;;;2.30;;
19897;SDS011;10111;50.814;4.572;2023-02-03T01:03:41;3.87;;;2.00;;
19897;SDS011;10111;50.814;4.572;2023-02-03T01:08:40;3.37;;;1.93;;
19897;SDS011;10111;50.814;4.572;2023-02-03T01:11:07;6.10;;;2.63;;
19897;SDS011;10111;50.814;4.572;2023-02-03T01:13:34;4.93;;;2.53;;
19897;SDS011;10111;50.814;4.572;2023-02-03T01:16:00;8.87;;;2.80;;
19897;SDS011;10111;50.814;4.572;2023-02-03T01:18:25;2.47;;;2.27;;
19897;SDS011;10111;50.814;4.572;2023-02-03T01:20:51;4.87;;;2.37;;
19897;SDS011;10111;50.814;4.572;2023-02-03T01:23:17;8.93;;;2.63;;
19897;SDS011;10111;50.814;4.572;2023-02-03T01:25:42;5.13;;;1.90;;
19897;SDS011;10111;50.814;4.572;2023-02-03T01:28:08;10.23;;;2.50;;
19897;SDS011;10111;50.814;4.572;2023-02-03T01:30:34;6.97;;;2.27;;
19897;SDS011;10111;50.814;4.572;2023-02-03T01:32:59;3.97;;;2.03;;
19897;SDS011;10111;50.814;4.572;2023-02-03T01:35:25;4.93;;;1.70;;
19897;SDS011;10111;50.814;4.572;2023-02-03T01:37:51;6.03;;;1.90;;
19897;SDS011;10111;50.814;4.572;2023-02-03T01:40:16;3.67;;;2.03;;
19897;SDS011;10111;50.814;4.572;2023-02-03T01:42:42;5.50;;;2.83;;
19897;SDS011;10111;50.814;4.572;2023-02-03T01:45:09;6.10;;;2.03;;
19897;SDS011;10111;50.814;4.572;2023-02-03T01:47:48;4.73;;;1.73;;
19897;SDS011;10111;50.814;4.572;2023-02-03T01:50:25;2.83;;;1.90;;
19897;SDS011;10111;50.814;4.572;2023-02-03T01:52:57;3.07;;;1.70;;
19897;SDS011;10111;50.814;4.572;2023-02-03T01:55:29;6.60;;;2.20;;
19897;SDS011;10111;50.814;4.572;2023-02-03T01:58:02;5.73;;;1.50;;
19897;SDS011;10111;50.814;4.572;2023-02-03T02:00:36;3.33;;;1.47;;
19897;SDS011;10111;50.814;4.572;2023-02-03T02:03:01;5.07;;;2.37;;
19897;SDS011;10111;50.814;4.572;2023-02-03T02:05:31;3.87;;;1.53;;
19897;SDS011;10111;50.814;4.572;2023-02-03T02:08:05;4.20;;;1.40;;
19897;SDS011;10111;50.814;4.572;2023-02-03T02:10:32;3.50;;;1.47;;
19897;SDS011;10111;50.814;4.572;2023-02-03T02:12:59;5.43;;;1.77;;
19897;SDS011;10111;50.814;4.572;2023-02-03T02:15:30;2.23;;;1.60;;
19897;SDS011;10111;50.814;4.572;2023-02-03T02:36:42;8.57;;;1.90;;
19897;SDS011;10111;50.814;4.572;2023-02-03T02:39:22;1.40;;;1.27;;
19897;SDS011;10111;50.814;4.572;2023-02-03T02:42:22;5.43;;;1.30;;
19897;SDS011;10111;50.814;4.572;2023-02-03T02:44:54;5.27;;;1.20;;
19897;SDS011;10111;50.814;4.572;2023-02-03T02:47:27;3.67;;;1.93;;
19897;SDS011;10111;50.814;4.572;2023-02-03T02:49:54;5.17;;;1.97;;
19897;SDS011;10111;50.814;4.572;2023-02-03T02:52:25;3.10;;;1.30;;
19897;SDS011;10111;50.814;4.572;2023-02-03T02:54:55;5.23;;;1.90;;
19897;SDS011;10111;50.814;4.572;2023-02-03T02:57:25;9.27;;;2.10;;
19897;SDS011;10111;50.814;4.572;2023-02-03T02:59:53;5.67;;;1.57;;
19897;SDS011;10111;50.814;4.572;2023-02-03T03:02:18;3.23;;;1.90;;
19897;SDS011;10111;50.814;4.572;2023-02-03T03:04:44;5.17;;;1.67;;
19897;SDS011;10111;50.814;4.572;2023-02-03T03:07:17;4.87;;;1.20;;
19897;SDS011;10111;50.814;4.572;2023-02-03T03:09:53;2.90;;;1.93;;
19897;SDS011;10111;50.814;4.572;2023-02-03T03:12:27;3.70;;;1.47;;
19897;SDS011;10111;50.814;4.572;2023-02-03T03:14:57;2.50;;;1.47;;
19897;SDS011;10111;50.814;4.572;2023-02-03T03:17:41;3.50;;;1.23;;
19897;SDS011;10111;50.814;4.572;2023-02-03T03:20:13;4.10;;;1.33;;
19897;SDS011;10111;50.814;4.572;2023-02-03T03:22:46;6.20;;;1.50;;
19897;SDS011;10111;50.814;4.572;2023-02-03T03:25:20;3.30;;;1.37;;
19897;SDS011;10111;50.814;4.572;2023-02-03T03:27:54;1.53;;;1.30;;
19897;SDS011;10111;50.814;4.572;2023-02-03T03:30:26;3.47;;;1.40;;
19897;SDS011;10111;50.814;4.572;2023-02-03T03:32:57;3.67;;;1.40;;
19897;SDS011;10111;50.814;4.572;2023-02-03T03:35:23;5.53;;;1.40;;
19897;SDS011;10111;50.814;4.572;2023-02-03T03:37:56;4.73;;;1.33;;
19897;SDS011;10111;50.814;4.572;2023-02-03T03:40:29;6.97;;;1.70;;
19897;SDS011;10111;50.814;4.572;2023-02-03T03:43:01;6.90;;;1.80;;
19897;SDS011;10111;50.814;4.572;2023-02-03T03:45:36;4.40;;;1.67;;
19897;SDS011;10111;50.814;4.572;2023-02-03T03:51:24;3.20;;;1.20;;
19897;SDS011;10111;50.814;4.572;2023-02-03T03:54:15;4.20;;;1.20;;
19897;SDS011;10111;50.814;4.572;2023-02-03T03:56:50;1.60;;;1.27;;
19897;SDS011;10111;50.814;4.572;2023-02-03T03:59:24;3.00;;;1.13;;
19897;SDS011;10111;50.814;4.572;2023-02-03T04:01:53;2.10;;;0.90;;
19897;SDS011;10111;50.814;4.572;2023-02-03T04:04:27;4.87;;;1.80;;
19897;SDS011;10111;50.814;4.572;2023-02-03T04:06:54;3.00;;;1.33;;
19897;SDS011;10111;50.814;4.572;2023-02-03T04:09:20;2.30;;;1.20;;
19897;SDS011;10111;50.814;4.572;2023-02-03T04:11:45;4.37;;;1.47;;
19897;SDS011;10111;50.814;4.572;2023-02-03T04:14:29;1.90;;;1.20;;
19897;SDS011;10111;50.814;4.572;2023-02-03T04:17:00;3.40;;;1.23;;
19897;SDS011;10111;50.814;4.572;2023-02-03T04:19:26;3.23;;;1.40;;
19897;SDS011;10111;50.814;4.572;2023-02-03T04:21:52;5.00;;;1.80;;
19897;SDS011;10111;50.814;4.572;2023-02-03T04:24:17;7.77;;;1.50;;
19897;SDS011;10111;50.814;4.572;2023-02-03T04:26:43;4.30;;;1.30;;
19897;SDS011;10111;50.814;4.572;2023-02-03T04:29:09;1.10;;;1.10;;
19897;SDS011;10111;50.814;4.572;2023-02-03T04:31:34;3.70;;;1.43;;
19897;SDS011;10111;50.814;4.572;2023-02-03T04:34:00;3.27;;;1.67;;
19897;SDS011;10111;50.814;4.572;2023-02-03T04:36:26;2.47;;;1.40;;
19897;SDS011;10111;50.814;4.572;2023-02-03T04:38:52;4.93;;;1.27;;
19897;SDS011;10111;50.814;4.572;2023-02-03T04:41:17;2.07;;;1.23;;
19897;SDS011;10111;50.814;4.572;2023-02-03T04:43:43;2.50;;;1.00;;
19897;SDS011;10111;50.814;4.572;2023-02-03T04:46:09;1.10;;;1.00;;
19897;SDS011;10111;50.814;4.572;2023-02-03T04:48:35;2.00;;;1.17;;
19897;SDS011;10111;50.814;4.572;2023-02-03T04:51:01;7.33;;;1.40;;
19897;SDS011;10111;50.814;4.572;2023-02-03T04:53:29;2.27;;;0.77;;
19897;SDS011;10111;50.814;4.572;2023-02-03T04:55:55;1.33;;;1.00;;
19897;SDS011;10111;50.814;4.572;2023-02-03T04:58:21;5.03;;;1.47;;
19897;SDS011;10111;50.814;4.572;2023-02-03T05:00:47;4.50;;;1.13;;
19897;SDS011;10111;50.814;4.572;2023-02-03T05:03:12;4.80;;;1.00;;
19897;SDS011;10111;50.814;4.572;2023-02-03T05:05:38;3.03;;;1.00;;
19897;SDS011;10111;50.814;4.572;2023-02-03T05:08:03;0.97;;;0.87;;
19897;SDS011;10111;50.814;4.572;2023-02-03T05:10:29;3.03;;;1.90;;
19897;SDS011;10111;50.814;4.572;2023-02-03T05:12:56;1.93;;;1.20;;
19897;SDS011;10111;50.814;4.572;2023-02-03T05:15:21;1.13;;;1.03;;
19897;SDS011;10111;50.814;4.572;2023-02-03T05:17:47;1.60;;;0.97;;
19897;SDS011;10111;50.814;4.572;2023-02-03T05:20:15;2.47;;;1.00;;
19897;SDS011;10111;50.814;4.572;2023-02-03T05:22:41;2.43;;;1.00;;
19897;SDS011;10111;50.814;4.572;2023-02-03T05:25:07;1.83;;;0.80;;
19897;SDS011;10111;50.814;4.572;2023-02-03T05:27:32;4.17;;;1.30;;
19897;SDS011;10111;50.814;4.572;2023-02-03T05:29:58;3.77;;;0.80;;
19897;SDS011;10111;50.814;4.572;2023-02-03T05:32:24;4.03;;;1.53;;
19897;SDS011;10111;50.814;4.572;2023-02-03T05:34:49;2.70;;;1.13;;
19897;SDS011;10111;50.814;4.572;2023-02-03T05:37:15;1.13;;;1.07;;
19897;SDS011;10111;50.814;4.572;2023-02-03T05:39:41;6.33;;;1.30;;
19897;SDS011;10111;50.814;4.572;2023-02-03T05:42:06;4.03;;;1.57;;
19897;SDS011;10111;50.814;4.572;2023-02-03T05:44:32;2.30;;;1.07;;
19897;SDS011;10111;50.814;4.572;2023-02-03T05:46:58;2.47;;;0.90;;
19897;SDS011;10111;50.814;4.572;2023-02-03T05:49:24;4.23;;;1.30;;
19897;SDS011;10111;50.814;4.572;2023-02-03T05:51:52;8.17;;;4.67;;
19897;SDS011;10111;50.814;4.572;2023-02-03T05:54:19;4.80;;;1.63;;
19897;SDS011;10111;50.814;4.572;2023-02-03T05:56:45;2.40;;;1.20;;
19897;SDS011;10111;50.814;4.572;2023-02-03T05:59:10;2.10;;;1.10;;
19897;SDS011;10111;50.814;4.572;2023-02-03T06:01:36;3.67;;;1.30;;
19897;SDS011;10111;50.814;4.572;2023-02-03T06:04:02;4.07;;;1.43;;
19897;SDS011;10111;50.814;4.572;2023-02-03T06:06:28;3.67;;;0.97;;
19897;SDS011;10111;50.814;4.572;2023-02-03T06:09:00;3.57;;;0.87;;
19897;SDS011;10111;50.814;4.572;2023-02-03T06:11:28;5.37;;;1.40;;
19897;SDS011;10111;50.814;4.572;2023-02-03T06:13:54;3.70;;;1.63;;
19897;SDS011;10111;50.814;4.572;2023-02-03T06:16:22;3.53;;;0.93;;
19897;SDS011;10111;50.814;4.572;2023-02-03T06:18:49;2.10;;;1.10;;
19897;SDS011;10111;50.814;4.572;2023-02-03T06:21:16;3.20;;;1.27;;
19897;SDS011;10111;50.814;4.572;2023-02-03T06:23:42;2.20;;;1.40;;
19897;SDS011;10111;50.814;4.572;2023-02-03T06:26:07;3.93;;;1.17;;
19897;SDS011;10111;50.814;4.572;2023-02-03T06:28:33;5.73;;;1.40;;
19897;SDS011;10111;50.814;4.572;2023-02-03T06:30:59;7.17;;;1.27;;
19897;SDS011;10111;50.814;4.572;2023-02-03T06:33:25;5.60;;;1.10;;
19897;SDS011;10111;50.814;4.572;2023-02-03T06:35:50;10.70;;;2.47;;
19897;SDS011;10111;50.814;4.572;2023-02-03T06:38:18;4.17;;;1.20;;
19897;SDS011;10111;50.814;4.572;2023-02-03T06:40:47;3.27;;;1.60;;
19897;SDS011;10111;50.814;4.572;2023-02-03T06:43:13;5.60;;;1.27;;
19897;SDS011;10111;50.814;4.572;2023-02-03T06:45:39;3.43;;;1.53;;
19897;SDS011;10111;50.814;4.572;2023-02-03T06:48:05;2.57;;;1.40;;
19897;SDS011;10111;50.814;4.572;2023-02-03T06:50:31;2.27;;;0.90;;
19897;SDS011;10111;50.814;4.572;2023-02-03T06:52:57;3.07;;;2.23;;
19897;SDS011;10111;50.814;4.572;2023-02-03T06:55:23;2.43;;;1.27;;
19897;SDS011;10111;50.814;4.572;2023-02-03T06:57:49;6.20;;;1.40;;
19897;SDS011;10111;50.814;4.572;2023-02-03T07:00:15;3.83;;;1.00;;
19897;SDS011;10111;50.814;4.572;2023-02-03T07:02:42;3.03;;;1.57;;
19897;SDS011;10111;50.814;4.572;2023-02-03T07:05:08;2.03;;;1.07;;
19897;SDS011;10111;50.814;4.572;2023-02-03T07:07:34;3.03;;;1.30;;
19897;SDS011;10111;50.814;4.572;2023-02-03T07:10:00;7.30;;;1.80;;
19897;SDS011;10111;50.814;4.572;2023-02-03T07:12:26;1.80;;;1.27;;
19897;SDS011;10111;50.814;4.572;2023-02-03T07:14:52;1.27;;;0.90;;
19897;SDS011;10111;50.814;4.572;2023-02-03T07:17:18;1.67;;;0.90;;
19897;SDS011;10111;50.814;4.572;2023-02-03T07:19:43;1.10;;;1.00;;
19897;SDS011;10111;50.814;4.572;2023-02-03T07:22:09;3.27;;;1.63;;
19897;SDS011;10111;50.814;4.572;2023-02-03T07:24:35;1.73;;;1.33;;
19897;SDS011;10111;50.814;4.572;2023-02-03T07:27:01;1.80;;;1.00;;
19897;SDS011;10111;50.814;4.572;2023-02-03T07:29:27;2.47;;;1.17;;
19897;SDS011;10111;50.814;4.572;2023-02-03T07:31:52;3.80;;;1.27;;
19897;SDS011;10111;50.814;4.572;2023-02-03T07:34:18;7.53;;;1.50;;
19897;SDS011;10111;50.814;4.572;2023-02-03T07:36:44;2.80;;;1.57;;
19897;SDS011;10111;50.814;4.572;2023-02-03T07:39:09;2.23;;;1.10;;
19897;SDS011;10111;50.814;4.572;2023-02-03T07:41:35;3.13;;;1.20;;
19897;SDS011;10111;50.814;4.572;2023-02-03T07:44:01;6.00;;;1.57;;
19897;SDS011;10111;50.814;4.572;2023-02-03T07:46:27;2.53;;;0.87;;
19897;SDS011;10111;50.814;4.572;2023-02-03T07:48:52;3.40;;;1.20;;
19897;SDS011;10111;50.814;4.572;2023-02-03T07:51:18;9.20;;;1.90;;
19897;SDS011;10111;50.814;4.572;2023-02-03T07:53:44;1.77;;;1.00;;
19897;SDS011;10111;50.814;4.572;2023-02-03T07:56:10;2.53;;;1.00;;
19897;SDS011;10111;50.814;4.572;2023-02-03T07:58:36;4.90;;;1.50;;
19897;SDS011;10111;50.814;4.572;2023-02-03T08:01:08;3.80;;;2.43;;
19897;SDS011;10111;50.814;4.572;2023-02-03T08:03:35;3.77;;;1.17;;
19897;SDS011;10111;50.814;4.572;2023-02-03T08:06:00;6.13;;;1.63;;
19897;SDS011;10111;50.814;4.572;2023-02-03T08:08:26;2.37;;;1.27;;
19897;SDS011;10111;50.814;4.572;2023-02-03T08:10:53;5.37;;;1.10;;
19897;SDS011;10111;50.814;4.572;2023-02-03T08:13:20;1.37;;;1.27;;
19897;SDS011;10111;50.814;4.572;2023-02-03T08:15:46;1.80;;;0.87;;
19897;SDS011;10111;50.814;4.572;2023-02-03T08:18:12;3.87;;;1.40;;
19897;SDS011;10111;50.814;4.572;2023-02-03T08:20:37;1.87;;;1.47;;
19897;SDS011;10111;50.814;4.572;2023-02-03T08:23:03;4.53;;;1.23;;
19897;SDS011;10111;50.814;4.572;2023-02-03T08:25:29;5.60;;;1.53;;
19897;SDS011;10111;50.814;4.572;2023-02-03T08:27:55;2.33;;;1.13;;
19897;SDS011;10111;50.814;4.572;2023-02-03T08:30:21;1.43;;;1.00;;
19897;SDS011;10111;50.814;4.572;2023-02-03T08:32:47;4.03;;;2.40;;
19897;SDS011;10111;50.814;4.572;2023-02-03T08:35:12;3.40;;;1.30;;
19897;SDS011;10111;50.814;4.572;2023-02-03T08:37:38;8.40;;;2.80;;
19897;SDS011;10111;50.814;4.572;2023-02-03T08:40:04;2.10;;;1.37;;
19897;SDS011;10111;50.814;4.572;2023-02-03T08:42:30;2.90;;;1.23;;
19897;SDS011;10111;50.814;4.572;2023-02-03T08:44:56;1.77;;;1.10;;
19897;SDS011;10111;50.814;4.572;2023-02-03T08:47:22;2.70;;;1.40;;
19897;SDS011;10111;50.814;4.572;2023-02-03T08:49:48;3.20;;;1.30;;
19897;SDS011;10111;50.814;4.572;2023-02-03T08:52:13;3.03;;;1.10;;
19897;SDS011;10111;50.814;4.572;2023-02-03T08:54:39;2.53;;;1.13;;
19897;SDS011;10111;50.814;4.572;2023-02-03T08:57:06;5.87;;;2.03;;
19897;SDS011;10111;50.814;4.572;2023-02-03T08:59:32;3.10;;;1.10;;
19897;SDS011;10111;50.814;4.572;2023-02-03T09:02:04;2.67;;;1.70;;
19897;SDS011;10111;50.814;4.572;2023-02-03T09:04:32;2.93;;;1.83;;
19897;SDS011;10111;50.814;4.572;2023-02-03T09:06:58;5.63;;;1.17;;
19897;SDS011;10111;50.814;4.572;2023-02-03T09:09:25;6.80;;;1.63;;
19897;SDS011;10111;50.814;4.572;2023-02-03T09:11:51;8.00;;;2.43;;
19897;SDS011;10111;50.814;4.572;2023-02-03T09:14:19;5.50;;;1.60;;
19897;SDS011;10111;50.814;4.572;2023-02-03T09:16:45;1.67;;;1.03;;
19897;SDS011;10111;50.814;4.572;2023-02-03T09:19:10;3.87;;;1.73;;
19897;SDS011;10111;50.814;4.572;2023-02-03T09:21:37;2.67;;;1.20;;
19897;SDS011;10111;50.814;4.572;2023-02-03T09:24:03;5.47;;;1.83;;
19897;SDS011;10111;50.814;4.572;2023-02-03T09:26:29;9.40;;;2.80;;
19897;SDS011;10111;50.814;4.572;2023-02-03T09:28:55;5.40;;;1.43;;
19897;SDS011;10111;50.814;4.572;2023-02-03T09:31:20;6.87;;;2.00;;
19897;SDS011;10111;50.814;4.572;2023-02-03T09:33:46;5.10;;;1.40;;
19897;SDS011;10111;50.814;4.572;2023-02-03T09:36:12;2.63;;;1.00;;
19897;SDS011;10111;50.814;4.572;2023-02-03T09:38:38;2.90;;;1.70;;
19897;SDS011;10111;50.814;4.572;2023-02-03T09:46:31;3.87;;;1.27;;
19897;SDS011;10111;50.814;4.572;2023-02-03T09:49:04;4.53;;;1.30;;
19897;SDS011;10111;50.814;4.572;2023-02-03T09:51:55;2.50;;;2.00;;
19897;SDS011;10111;50.814;4.572;2023-02-03T09:54:28;1.53;;;1.43;;
19897;SDS011;10111;50.814;4.572;2023-02-03T09:56:58;3.53;;;1.97;;
19897;SDS011;10111;50.814;4.572;2023-02-03T09:59:26;4.73;;;1.77;;
19897;SDS011;10111;50.814;4.572;2023-02-03T10:01:59;6.17;;;1.20;;
19897;SDS011;10111;50.814;4.572;2023-02-03T10:08:19;4.30;;;1.50;;
19897;SDS011;10111;50.814;4.572;2023-02-03T10:11:18;2.87;;;1.60;;
19897;SDS011;10111;50.814;4.572;2023-02-03T10:17:10;4.37;;;1.70;;
19897;SDS011;10111;50.814;4.572;2023-02-03T10:19:36;2.13;;;1.60;;
19897;SDS011;10111;50.814;4.572;2023-02-03T10:22:10;2.87;;;1.50;;
19897;SDS011;10111;50.814;4.572;2023-02-03T10:24:43;8.33;;;2.10;;
19897;SDS011;10111;50.814;4.572;2023-02-03T10:27:20;4.33;;;1.57;;
19897;SDS011;10111;50.814;4.572;2023-02-03T10:29:50;3.20;;;1.60;;
19897;SDS011;10111;50.814;4.572;2023-02-03T10:32:22;5.57;;;3.23;;
19897;SDS011;10111;50.814;4.572;2023-02-03T10:34:50;5.10;;;1.93;;
19897;SDS011;10111;50.814;4.572;2023-02-03T10:40:02;2.40;;;1.60;;
19897;SDS011;10111;50.814;4.572;2023-02-03T10:42:29;1.57;;;1.47;;
19897;SDS011;10111;50.814;4.572;2023-02-03T10:45:16;5.83;;;2.13;;
19897;SDS011;10111;50.814;4.572;2023-02-03T10:47:44;4.27;;;2.17;;
19897;SDS011;10111;50.814;4.572;2023-02-03T10:50:15;2.57;;;1.90;;
19897;SDS011;10111;50.814;4.572;2023-02-03T10:52:43;2.60;;;1.60;;
19897;SDS011;10111;50.814;4.572;2023-02-03T10:57:47;5.93;;;2.40;;
19897;SDS011;10111;50.814;4.572;2023-02-03T11:00:23;6.13;;;2.07;;
19897;SDS011;10111;50.814;4.572;2023-02-03T11:02:53;3.80;;;2.33;;
19897;SDS011;10111;50.814;4.572;2023-02-03T11:05:21;2.53;;;2.13;;
19897;SDS011;10111;50.814;4.572;2023-02-03T11:07:49;3.77;;;2.17;;
19897;SDS011;10111;50.814;4.572;2023-02-03T11:18:51;2.67;;;1.97;;
19897;SDS011;10111;50.814;4.572;2023-02-03T11:21:20;3.40;;;2.40;;
19897;SDS011;10111;50.814;4.572;2023-02-03T11:26:39;6.07;;;2.23;;
19897;SDS011;10111;50.814;4.572;2023-02-03T11:29:29;3.07;;;2.07;;
19897;SDS011;10111;50.814;4.572;2023-02-03T11:31:59;5.67;;;2.87;;
19897;SDS011;10111;50.814;4.572;2023-02-03T11:34:27;6.70;;;2.00;;
19897;SDS011;10111;50.814;4.572;2023-02-03T11:37:09;3.23;;;2.20;;
19897;SDS011;10111;50.814;4.572;2023-02-03T11:42:32;6.80;;;2.53;;
19897;SDS011;10111;50.814;4.572;2023-02-03T11:45:12;2.50;;;2.30;;
19897;SDS011;10111;50.814;4.572;2023-02-03T11:47:43;2.23;;;2.03;;
19897;SDS011;10111;50.814;4.572;2023-02-03T11:53:25;4.10;;;2.50;;
19897;SDS011;10111;50.814;4.572;2023-02-03T12:12:47;3.53;;;2.33;;
19897;SDS011;10111;50.814;4.572;2023-02-03T12:21:42;4.27;;;2.03;;
19897;SDS011;10111;50.814;4.572;2023-02-03T12:29:41;3.17;;;2.03;;
19897;SDS011;10111;50.814;4.572;2023-02-03T12:35:11;3.50;;;2.40;;
19897;SDS011;10111;50.814;4.572;2023-02-03T12:43:25;3.57;;;2.30;;
19897;SDS011;10111;50.814;4.572;2023-02-03T12:46:04;5.40;;;2.67;;
19897;SDS011;10111;50.814;4.572;2023-02-03T12:48:44;3.97;;;2.17;;
19897;SDS011;10111;50.814;4.572;2023-02-03T12:54:48;3.67;;;2.50;;
19897;SDS011;10111;50.814;4.572;2023-02-03T12:57:16;3.87;;;2.97;;
19897;SDS011;10111;50.814;4.572;2023-02-03T12:59:58;3.97;;;2.30;;
19897;SDS011;10111;50.814;4.572;2023-02-03T13:02:59;3.10;;;2.30;;
19897;SDS011;10111;50.814;4.572;2023-02-03T13:14:27;7.07;;;3.87;;
19897;SDS011;10111;50.814;4.572;2023-02-03T13:17:33;3.23;;;2.73;;
19897;SDS011;10111;50.814;4.572;2023-02-03T13:20:27;4.47;;;2.53;;
19897;SDS011;10111;50.814;4.572;2023-02-03T13:22:56;8.23;;;2.97;;
19897;SDS011;10111;50.814;4.572;2023-02-03T13:33:30;3.27;;;2.80;;
19897;SDS011;10111;50.814;4.572;2023-02-03T13:41:29;8.20;;;3.93;;
19897;SDS011;10111;50.814;4.572;2023-02-03T13:44:10;8.63;;;4.23;;
19897;SDS011;10111;50.814;4.572;2023-02-03T13:46:39;9.77;;;5.40;;
19897;SDS011;10111;50.814;4.572;2023-02-03T13:49:05;9.43;;;4.50;;
19897;SDS011;10111;50.814;4.572;2023-02-03T13:51:36;6.80;;;4.47;;
19897;SDS011;10111;50.814;4.572;2023-02-03T13:54:13;8.83;;;5.33;;
19897;SDS011;10111;50.814;4.572;2023-02-03T13:57:19;5.30;;;4.60;;
19897;SDS011;10111;50.814;4.572;2023-02-03T13:59:45;6.20;;;4.30;;
19897;SDS011;10111;50.814;4.572;2023-02-03T14:12:37;6.23;;;3.53;;
19897;SDS011;10111;50.814;4.572;2023-02-03T14:20:37;4.23;;;3.20;;
19897;SDS011;10111;50.814;4.572;2023-02-03T14:25:31;4.53;;;3.33;;
19897;SDS011;10111;50.814;4.572;2023-02-03T14:28:04;4.23;;;3.50;;
19897;SDS011;10111;50.814;4.572;2023-02-03T14:30:54;5.97;;;3.40;;
19897;SDS011;10111;50.814;4.572;2023-02-03T14:33:44;6.90;;;3.43;;
19897;SDS011;10111;50.814;4.572;2023-02-03T14:44:27;4.50;;;2.97;;
19897;SDS011;10111;50.814;4.572;2023-02-03T14:49:43;5.90;;;3.13;;
19897;SDS011;10111;50.814;4.572;2023-02-03T14:57:48;3.80;;;2.43;;
19897;SDS011;10111;50.814;4.572;2023-02-03T15:05:44;3.07;;;2.40;;
19897;SDS011;10111;50.814;4.572;2023-02-03T15:11:24;2.73;;;2.10;;
19897;SDS011;10111;50.814;4.572;2023-02-03T15:14:12;3.30;;;2.20;;
19897;SDS011;10111;50.814;4.572;2023-02-03T15:16:42;3.27;;;1.83;;
19897;SDS011;10111;50.814;4.572;2023-02-03T15:19:18;4.07;;;2.47;;
19897;SDS011;10111;50.814;4.572;2023-02-03T15:21:47;4.07;;;1.60;;
19897;SDS011;10111;50.814;4.572;2023-02-03T15:24:14;2.17;;;1.90;;
19897;SDS011;10111;50.814;4.572;2023-02-03T15:26:53;1.93;;;1.50;;
19897;SDS011;10111;50.814;4.572;2023-02-03T15:29:32;3.00;;;2.17;;
19897;SDS011;10111;50.814;4.572;2023-02-03T15:32:00;2.30;;;1.60;;
19897;SDS011;10111;50.814;4.572;2023-02-03T15:34:47;3.20;;;1.90;;
19897;SDS011;10111;50.814;4.572;2023-02-03T15:37:19;2.33;;;1.77;;
19897;SDS011;10111;50.814;4.572;2023-02-03T15:42:42;3.00;;;2.30;;
19897;SDS011;10111;50.814;4.572;2023-02-03T15:48:27;3.73;;;2.00;;
19897;SDS011;10111;50.814;4.572;2023-02-03T15:59:05;2.63;;;2.00;;
19897;SDS011;10111;50.814;4.572;2023-02-03T16:01:45;5.57;;;3.10;;
19897;SDS011;10111;50.814;4.572;2023-02-03T16:04:11;2.80;;;2.50;;
19897;SDS011;10111;50.814;4.572;2023-02-03T16:06:38;3.33;;;3.03;;
19897;SDS011;10111;50.814;4.572;2023-02-03T16:09:54;5.43;;;3.33;;
19897;SDS011;10111;50.814;4.572;2023-02-03T16:12:26;5.67;;;2.93;;
19897;SDS011;10111;50.814;4.572;2023-02-03T16:14:52;7.00;;;2.87;;
19897;SDS011;10111;50.814;4.572;2023-02-03T16:17:26;5.73;;;3.30;;
19897;SDS011;10111;50.814;4.572;2023-02-03T16:22:35;7.70;;;4.40;;
19897;SDS011;10111;50.814;4.572;2023-02-03T16:25:17;10.33;;;4.53;;
19897;SDS011;10111;50.814;4.572;2023-02-03T16:27:54;9.47;;;4.90;;
19897;SDS011;10111;50.814;4.572;2023-02-03T16:30:52;11.73;;;5.33;;
19897;SDS011;10111;50.814;4.572;2023-02-03T16:33:36;8.83;;;4.23;;
19897;SDS011;10111;50.814;4.572;2023-02-03T16:36:20;8.73;;;4.63;;
19897;SDS011;10111;50.814;4.572;2023-02-03T16:39:07;10.23;;;3.63;;
19897;SDS011;10111;50.814;4.572;2023-02-03T16:41:54;7.23;;;3.57;;
19897;SDS011;10111;50.814;4.572;2023-02-03T16:44:41;6.30;;;3.60;;
19897;SDS011;10111;50.814;4.572;2023-02-03T16:47:27;8.27;;;4.30;;
19897;SDS011;10111;50.814;4.572;2023-02-03T16:50:16;4.43;;;3.17;;
19897;SDS011;10111;50.814;4.572;2023-02-03T16:53:08;6.27;;;3.33;;
19897;SDS011;10111;50.814;4.572;2023-02-03T16:55:42;7.47;;;4.20;;
19897;SDS011;10111;50.814;4.572;2023-02-03T16:58:11;8.47;;;3.23;;
19897;SDS011;10111;50.814;4.572;2023-02-03T17:00:37;7.03;;;3.67;;
19897;SDS011;10111;50.814;4.572;2023-02-03T17:03:05;5.63;;;4.07;;
19897;SDS011;10111;50.814;4.572;2023-02-03T17:05:39;9.53;;;3.73;;
19897;SDS011;10111;50.814;4.572;2023-02-03T17:08:07;13.23;;;5.50;;
19897;SDS011;10111;50.814;4.572;2023-02-03T17:10:33;5.97;;;4.17;;
19897;SDS011;10111;50.814;4.572;2023-02-03T17:12:59;8.63;;;4.23;;
19897;SDS011;10111;50.814;4.572;2023-02-03T17:15:25;4.43;;;2.63;;
19897;SDS011;10111;50.814;4.572;2023-02-03T17:17:51;5.40;;;3.10;;
19897;SDS011;10111;50.814;4.572;2023-02-03T17:20:17;9.80;;;4.10;;
19897;SDS011;10111;50.814;4.572;2023-02-03T17:22:43;6.67;;;4.20;;
19897;SDS011;10111;50.814;4.572;2023-02-03T17:25:09;12.50;;;3.90;;
19897;SDS011;10111;50.814;4.572;2023-02-03T17:27:34;12.17;;;6.00;;
19897;SDS011;10111;50.814;4.572;2023-02-03T17:30:00;11.63;;;5.27;;
19897;SDS011;10111;50.814;4.572;2023-02-03T17:32:25;11.57;;;6.23;;
19897;SDS011;10111;50.814;4.572;2023-02-03T17:34:51;9.80;;;4.70;;
19897;SDS011;10111;50.814;4.572;2023-02-03T17:37:17;10.03;;;4.47;;
19897;SDS011;10111;50.814;4.572;2023-02-03T17:39:43;10.23;;;5.30;;
19897;SDS011;10111;50.814;4.572;2023-02-03T17:42:08;9.70;;;5.07;;
19897;SDS011;10111;50.814;4.572;2023-02-03T17:44:34;12.97;;;7.07;;
19897;SDS011;10111;50.814;4.572;2023-02-03T17:47:00;14.80;;;6.73;;
19897;SDS011;10111;50.814;4.572;2023-02-03T17:49:26;15.97;;;6.90;;
19897;SDS011;10111;50.814;4.572;2023-02-03T17:51:52;14.20;;;6.63;;
19897;SDS011;10111;50.814;4.572;2023-02-03T17:54:18;13.90;;;7.50;;
19897;SDS011;10111;50.814;4.572;2023-02-03T17:56:44;13.83;;;6.80;;
19897;SDS011;10111;50.814;4.572;2023-02-03T17:59:13;15.80;;;7.60;;
19897;SDS011;10111;50.814;4.572;2023-02-03T18:01:39;17.70;;;7.53;;
19897;SDS011;10111;50.814;4.572;2023-02-03T18:04:05;17.83;;;9.07;;
19897;SDS011;10111;50.814;4.572;2023-02-03T18:06:35;11.27;;;5.27;;